Pioche, Nevada Weather observations

Data are for observation ending at time listed.
 Day   Time    Ave.   Ave.  Ave.  Vector   Max.   Stn.    Total    Solar   Ave.  
  of    of     Air    Rel.  Wind   Wind    Wind   Baro.  Precip.   Rad.    Soil  
Year   Day     Temp.  Hum.  Speed  Dir.    Gust   Pres.                    Temp. 
2014   (PST)    F      %     mph   deg.    mph     mb.     in.     W/m2     F   
------------------------------------------------------------------------------
 244    4:10   61.8    30    3.1   288      4.1   819.9    0.00       0    75.1
 244    4:20   60.1    31    2.7   279      5.2   820.0    0.00       0    75.1
 244    4:30   58.7    33    1.9   266      4.2   820.0    0.00       0    75.0
 244    4:40   58.7    34    3.2   269      5.1   820.1    0.00       0    74.9
 244    4:50   58.3    34    2.5   261      5.9   820.1    0.00       0    74.9
 244    5:00   58.3    34    2.8   266      5.3   820.2    0.00       0    74.8
 244    5:10   57.6    37    2.3   271      4.5   820.2    0.00       3    74.8
 244    5:20   58.3    35    4.2   271      6.6   820.4    0.00       8    74.7
 244    5:30   58.4    35    2.7   284      5.1   820.5    0.00      12    74.6
 244    5:40   58.5    35    1.2   311      2.3   820.6    0.00      36    74.6
 244    5:50   60.9    33    0.0   287      1.2   820.7    0.00      87    74.5
 244    6:00   62.7    33    0.9   263      2.0   820.8    0.00     123    74.5
 244    6:10   63.8    31    1.4   324      3.5   820.9    0.00     156    74.4
 244    6:20   63.2    31    2.8   302      4.7   821.0    0.00     191    74.4
 244    6:30   64.2    30    4.1   286      6.6   821.1    0.00     228    74.3
 244    6:40   65.2    29    6.1   284     10.9   821.2    0.00     266    74.2
 244    6:50   65.7    29    6.5   283     10.5   821.2    0.00     304    74.2
 244    7:00   66.0    29    7.5   284     12.3   821.2    0.00     342    74.1
 244    7:10   66.8    29    6.5   291     10.7   821.3    0.00     380    74.1
 244    7:20   67.4    28    6.1   295      9.9   821.4    0.00     417    74.0
 244    7:30   67.6    28    5.7   308      9.0   821.4    0.00     455    74.0
 244    7:40   67.9    28    5.8   299      8.8   821.4    0.00     490    73.9
 244    7:50   68.6    27    5.6   297      8.8   821.5    0.00     527    73.9
 244    8:00   69.6    26    5.3   298      8.0   821.5    0.00     562    73.8
 244    8:10   70.8    25    4.2   295      7.2   821.6    0.00     597    73.8
 244    8:20   72.0    24    3.9   290      6.5   821.6    0.00     631    73.7
 244    8:30   72.8    22    4.1   312      8.2   821.7    0.00     662    73.7
 244    8:40   74.2    20    3.6   305      7.0   821.7    0.00     693    73.7
 244    8:50   75.7    18    2.6   288      4.8   821.7    0.00     723    73.7
 244    9:00   77.1    17    1.7   293      4.4   821.8    0.00     749    73.6
 244    9:10   78.2    16    1.6    19      4.8   821.8    0.00     774    73.6
 244    9:20   78.9    16    0.7    68      4.5   821.8    0.00     798    73.6
 244    9:30   79.0    15    1.5   112      6.0   821.8    0.00     822    73.5
 244    9:40   80.3    15    0.3    69      3.9   821.8    0.00     846    73.6
 244    9:50   80.0    14    0.3   120      2.6   821.7    0.00     867    73.6
 244   10:00   81.1    14    1.1   112      5.6   821.7    0.00     886    73.6
 244   10:10   81.2    14    0.5    97      4.5   821.7    0.00     903    73.5
 244   10:20   82.7    14    1.1   329      4.9   821.6    0.00     920    73.5
 244   10:30   82.5    14    0.1     9      2.9   821.6    0.00     934    73.5
 244   10:40   83.2    14    0.6   315      5.0   821.4    0.00     945    73.5
 244   10:50   83.1    14    1.6   320      6.6   821.4    0.00     953    73.5
 244   11:00   82.6    14    2.5   300      7.2   821.3    0.00     960    73.6
 244   11:10   83.1    14    2.1   323      9.6   821.3    0.00     968    73.6
 244   11:20   83.7    14    4.0   288     10.1   821.2    0.00     971    73.7
 244   11:30   83.5    14    1.6   279     10.0   821.1    0.00     976    73.7
 244   11:40   85.3    13    0.4   196      3.9   821.0    0.00     979    73.8
 244   11:50   85.6    13    1.4   325      6.8   820.9    0.00     978    73.8
 244   12:00   85.9    13    1.0   320      6.5   820.9    0.00     976    73.9
 244   12:10   85.2    13    2.7   120      9.4   820.8    0.00     976    74.0
 244   12:20   84.4    13    3.6   113      9.4   820.8    0.00     969    74.1
 244   12:30   86.2    13    0.4   166      4.6   820.7    0.00     962    74.2
 244   12:40   86.3    13    5.0   153     13.4   820.6    0.00     957    74.3
 244   12:50   86.2    12    3.2   141     13.4   820.5    0.00     942    74.4
 244   13:00   85.7    12    5.7   302     17.5   820.4    0.00     928    74.5
 244   13:10   86.3    12    2.8   117     15.8   820.2    0.00     914    74.6
 244   13:20   86.5    12    3.7   221     10.0   820.2    0.00     899    74.7
 244   13:30   86.9    12    5.0   182     13.0   820.2    0.00     881    74.8
 244   13:40   87.3    12    3.4   214     14.1   820.2    0.00     861    74.9
 244   13:50   86.8    12    4.6   174     11.0   820.1    0.00     838    75.1
 244   14:00   87.1    12    4.3   172     15.7   820.1    0.00     812    75.2
 244   14:10   86.0    12    7.8   141     16.7   820.0    0.00     786    75.3
 244   14:20   86.0    12    6.6   144     16.1   820.0    0.00     760    75.5
 244   14:30   85.9    12    5.4   162     13.4   820.0    0.00     730    75.6
 244   14:40   87.3    12    3.4   189     10.7   819.9    0.00     699    75.8
 244   14:50   86.6    12    5.2   184     13.8   819.9    0.00     673    75.9
 244   15:00   87.3    12    1.9   239      9.3   819.8    0.00     643    76.1
 244   15:10   86.8    12    2.7   156      8.8   819.8    0.00     609    76.2
 244   15:20   87.0    12    3.4   222     11.0   819.7    0.00     575    76.4
 244   15:30   86.1    12    6.3   278     12.2   819.7    0.00     542    76.6
 244   15:40   85.7    12    6.6   285     11.2   819.6    0.00     507    76.7
 244   15:50   86.1    12    2.8   276      8.8   819.6    0.00     470    76.9
 244   16:00   86.3    12    2.9   278      7.8   819.6    0.00     325    77.1
 244   16:10   85.3    12    2.1   250      7.5   819.6    0.00      87    77.2
 244   16:20   85.1    12    3.0   135      8.8   819.5    0.00      71    77.4
 244   16:30   84.9    12    3.1   181      9.6   819.5    0.00      50    77.5
 244   16:40   84.3    12    6.0   146     11.0   819.5    0.00      39    77.6
 244   16:50   83.9    13    4.8   186     10.4   819.5    0.00      33    77.8
 244   17:00   83.5    13    3.2   215      8.6   819.5    0.00      31    77.9
 244   17:10   83.2    13    3.2   191      6.8   819.4    0.00      34    78.0
 244   17:20   83.4    13    1.2   186      3.8   819.4    0.00      27    78.1
 244   17:30   83.3    14    0.5   175      2.5   819.4    0.00      23    78.2
 244   17:40   82.7    14    0.9   172      2.9   819.4    0.00      21    78.2
 244   17:50   81.1    14    1.7   173      3.0   819.5    0.00      12    78.3
 244   18:00   79.7    15    2.0   186      4.2   819.5    0.00      11    78.4
 244   18:10   79.5    14    3.2   165      4.7   819.5    0.00       5    78.5
 244   18:20   78.0    16    5.4   140      9.1   819.6    0.00       3    78.5
 244   18:30   78.9    15    4.8   159     10.7   819.6    0.00       0    78.5
 244   18:40   78.9    15    5.3   168      8.9   819.7    0.00       0    78.6
 244   18:50   78.9    16    5.9   180      9.1   819.8    0.00       0    78.6
 244   19:00   78.1    16    4.8   165      9.1   819.8    0.00       0    78.6
 244   19:10   78.0    17    4.9   168      8.0   819.9    0.00       0    78.6
 244   19:20   77.8    17    5.7   162     10.7   820.0    0.00       0    78.6
 244   19:30   78.0    17    6.6   159     11.1   820.1    0.00       0    78.6
 244   19:40   77.7    17    6.8   168     12.6   820.2    0.00       0    78.6
 244   19:50   77.6    18    7.1   161     12.7   820.2    0.00       0    78.6
 244   20:00   77.6    18    7.7   163     14.0   820.2    0.00       0    78.6
 244   20:10   77.3    18    7.6   162     12.1   820.2    0.00       0    78.6
 244   20:20   76.9    18    6.9   152     11.8   820.3    0.00       0    78.6
 244   20:30   76.3    19    6.9   156     12.6   820.3    0.00       0    78.5
 244   20:40   76.2    19    7.0   158     12.6   820.3    0.00       0    78.5
 244   20:50   75.8    19    6.6   156     11.2   820.3    0.00       0    78.5
 244   21:00   75.7    19    6.5   154     10.7   820.3    0.00       0    78.5
 244   21:10   75.5    20    6.9   155     11.2   820.3    0.00       0    78.4
 244   21:20   75.2    20    6.3   158     10.8   820.3    0.00       0    78.4
 244   21:30   75.1    20    6.5   153      9.9   820.3    0.00       0    78.3
 244   21:40   74.6    20    5.9   148      8.5   820.3    0.00       0    78.3
 244   21:50   74.2    21    4.9   158      8.0   820.3    0.00       0    78.2
 244   22:00   74.0    21    4.0   161      7.5   820.3    0.00       0    78.2
 244   22:10   72.2    22    1.1   132      4.1   820.4    0.00       0    78.2
 244   22:20   70.8    23    4.3    96      6.6   820.3    0.00       0    78.1
 244   22:30   71.0    23    3.4   125      4.6   820.3    0.00       0    78.1
 244   22:40   70.6    24    4.6   138      8.3   820.3    0.00       0    78.0
 244   22:50   70.8    24    5.0   142      6.1   820.2    0.00       0    78.0
 244   23:00   70.5    24    4.6   143      5.7   820.2    0.00       0    77.9
 244   23:10   71.0    24    4.6   145      6.1   820.3    0.00       0    77.9
 244   23:20   70.9    24    3.4   143      4.5   820.3    0.00       0    77.8
 244   23:30   70.2    25    2.1   144      3.8   820.4    0.00       0    77.8
 244   23:40   70.1    26    2.5   135      4.1   820.4    0.00       0    77.8
 244   23:50   69.3    27    3.1   134      3.9   820.4    0.00       0    77.7
 245    0:00   69.6    27    3.1   136      4.5   820.3    0.00       0    77.7
 245    0:10   68.9    27    2.2   103      3.4   820.4    0.00       0    77.6
 245    0:20   67.4    30    2.1   127      4.1   820.3    0.00       0    77.6
 245    0:30   67.9    28    2.2    86      3.4   820.3    0.00       0    77.5
 245    0:40   66.2    30    2.1    78      3.9   820.3    0.00       0    77.5
 245    0:50   62.7    40    1.6   126      3.1   820.3    0.00       0    77.4
 245    1:00   62.2    41    1.8   131      3.4   820.3    0.00       0    77.3
 245    1:10   61.3    40    0.7   147      1.8   820.3    0.00       0    77.3
 245    1:20   62.0    34    1.6   168      4.5   820.3    0.00       0    77.3
 245    1:30   62.8    33    3.8   137      5.3   820.3    0.00       0    77.2
 245    1:40   62.6    34    3.0   140      4.0   820.4    0.00       0    77.1
 245    1:50   62.7    34    2.7   126      3.7   820.4    0.00       0    77.1
 245    2:00   63.6    32    2.8   116      3.7   820.4    0.00       0    77.0
 245    2:10   63.8    32    2.8   136      3.8   820.4    0.00       0    76.9
 245    2:20   63.5    33    1.8   134      3.0   820.5    0.00       0    76.9
 245    2:30   63.9    32    2.6   118      3.1   820.5    0.00       0    76.8
 245    2:40   64.2    32    2.0   125      2.6   820.5    0.00       0    76.7
 245    2:50   63.9    32    2.3   134      2.8   820.5    0.00       0    76.7
 245    3:00   63.2    33    3.0   118      3.5   820.5    0.00       0    76.6
 245    3:10   62.4    35    3.2   128      3.8   820.6    0.00       0    76.6
 245    3:20   62.1    35    1.5   134      3.6   820.6    0.00       0    76.5
 245    3:30   61.9    36    0.8   181      2.2   820.6    0.00       0    76.4
 245    3:40   60.6    38    1.6   195      4.2   820.6    0.00       0    76.4
 245    3:50   60.7    38    5.3   151      6.1   820.7    0.00       0    76.3
 245    4:00   60.9    38    5.8   148      6.6   820.7    0.00       0    76.2

Return to Pioche, Nevada graphs page.


Western Regional Climate Center,wrcc@dri.edu